TAX06MM EGJJ-LSZS
Flight info
| Callsign | TAX06MM |
|---|---|
| Flight time | 1h 17m |
| Altitude | 35000 |
| Route | LUSIT DCT CAN DCT IXINI DCT BUSUK DCT PIGOP DCT TABOV DCT RESMI DCT TEPRI DCT POGZI DCT MANAG DCT DEVDI DCT SOPER DCT DETRI DCT ULGOD DCT ROSGO |
| Aircraft | B738/M-SDE2E3FGHIRWXY/LB1 |
Departure
| Time | 2026-04-26 12:28 |
|---|---|
| Airport | Jersey Airport (EGJJ) |
Arrival
| Time | 2026-04-26 13:45 |
|---|---|
| Airport | Engadin Airport (LSZS) |
| Time | Latitude | Longitude | Altitude | Speed | Heading |
|---|---|---|---|---|---|
| 2026-04-26 12:01 | 49.20554 | -2.19807 | 283 ft | 0 kts | 174° |
| 2026-04-26 12:20 | 49.20555 | -2.19807 | 283 ft | 1 kts | 174° |
| 2026-04-26 12:20 | 49.20572 | -2.19809 | 287 ft | 3 kts | 181° |
| 2026-04-26 12:20 | 49.20592 | -2.19806 | 291 ft | 3 kts | 199° |
| 2026-04-26 12:21 | 49.20608 | -2.19793 | 290 ft | 3 kts | 239° |
| 2026-04-26 12:21 | 49.20612 | -2.19780 | 286 ft | 0 kts | 263° |
| 2026-04-26 12:21 | 49.20612 | -2.19779 | 286 ft | 0 kts | 263° |
| 2026-04-26 12:24 | 49.20611 | -2.19796 | 289 ft | 4 kts | 263° |
| 2026-04-26 12:24 | 49.20605 | -2.19863 | 283 ft | 8 kts | 263° |
| 2026-04-26 12:24 | 49.20571 | -2.19930 | 283 ft | 10 kts | 189° |
| 2026-04-26 12:25 | 49.20537 | -2.20087 | 285 ft | 12 kts | 287° |
| 2026-04-26 12:25 | 49.20563 | -2.20216 | 286 ft | 13 kts | 287° |
| 2026-04-26 12:25 | 49.20590 | -2.20358 | 283 ft | 15 kts | 286° |
| 2026-04-26 12:25 | 49.20619 | -2.20512 | 283 ft | 16 kts | 284° |
| 2026-04-26 12:26 | 49.20630 | -2.20653 | 283 ft | 13 kts | 284° |
| 2026-04-26 12:26 | 49.20699 | -2.20669 | 284 ft | 13 kts | 53° |
| 2026-04-26 12:26 | 49.20710 | -2.20613 | 285 ft | 0 kts | 82° |
| 2026-04-26 12:27 | 49.20710 | -2.20609 | 285 ft | 3 kts | 82° |
| 2026-04-26 12:27 | 49.20727 | -2.20402 | 283 ft | 57 kts | 83° |
| 2026-04-26 12:27 | 49.20808 | -2.19430 | 290 ft | 133 kts | 82° |
| 2026-04-26 12:28 | 49.20914 | -2.18010 | 455 ft | 169 kts | 85° |
| 2026-04-26 12:28 | 49.21063 | -2.16280 | 1314 ft | 167 kts | 83° |
| 2026-04-26 12:28 | 49.21217 | -2.14571 | 2449 ft | 162 kts | 84° |
| 2026-04-26 12:28 | 49.21378 | -2.12761 | 2990 ft | 182 kts | 85° |
| 2026-04-26 12:29 | 49.21527 | -2.10698 | 3385 ft | 205 kts | 84° |
| 2026-04-26 12:29 | 49.21735 | -2.08477 | 3901 ft | 215 kts | 85° |
| 2026-04-26 12:29 | 49.22117 | -2.03517 | 4521 ft | 261 kts | 89° |
| 2026-04-26 12:30 | 49.22089 | -2.00682 | 5019 ft | 270 kts | 92° |
| 2026-04-26 12:30 | 49.22004 | -1.97884 | 5604 ft | 276 kts | 93° |
| 2026-04-26 12:30 | 49.21915 | -1.95107 | 6514 ft | 275 kts | 92° |
| 2026-04-26 12:31 | 49.21786 | -1.90706 | 7803 ft | 278 kts | 92° |
| 2026-04-26 12:31 | 49.21708 | -1.87742 | 8611 ft | 282 kts | 93° |
| 2026-04-26 12:31 | 49.21630 | -1.84732 | 9434 ft | 285 kts | 93° |
| 2026-04-26 12:31 | 49.21552 | -1.81674 | 10231 ft | 289 kts | 93° |
| 2026-04-26 12:32 | 49.21472 | -1.78547 | 10703 ft | 305 kts | 93° |
| 2026-04-26 12:32 | 49.21386 | -1.75280 | 10868 ft | 329 kts | 93° |
| 2026-04-26 12:32 | 49.21203 | -1.68344 | 11444 ft | 362 kts | 92° |
| 2026-04-26 12:33 | 49.21113 | -1.64967 | 11982 ft | 368 kts | 92° |
| 2026-04-26 12:33 | 49.21008 | -1.61024 | 12740 ft | 371 kts | 92° |
| 2026-04-26 12:33 | 49.20900 | -1.57057 | 13452 ft | 376 kts | 92° |
| 2026-04-26 12:33 | 49.20790 | -1.53078 | 14101 ft | 381 kts | 92° |
| 2026-04-26 12:34 | 49.20674 | -1.48941 | 14712 ft | 387 kts | 93° |
| 2026-04-26 12:34 | 49.20559 | -1.44864 | 15336 ft | 391 kts | 93° |
| 2026-04-26 12:34 | 49.20440 | -1.40683 | 15978 ft | 395 kts | 94° |
| 2026-04-26 12:34 | 49.20316 | -1.36453 | 16577 ft | 400 kts | 94° |
| 2026-04-26 12:35 | 49.20189 | -1.32176 | 17191 ft | 405 kts | 94° |
| 2026-04-26 12:35 | 49.20061 | -1.27884 | 17972 ft | 404 kts | 95° |
| 2026-04-26 12:35 | 49.19932 | -1.23576 | 18589 ft | 408 kts | 95° |
| 2026-04-26 12:35 | 49.19798 | -1.19227 | 19054 ft | 414 kts | 95° |
| 2026-04-26 12:36 | 49.19661 | -1.14810 | 19580 ft | 417 kts | 95° |
| 2026-04-26 12:36 | 49.19521 | -1.10363 | 20115 ft | 420 kts | 95° |
| 2026-04-26 12:36 | 49.19379 | -1.05879 | 20641 ft | 424 kts | 94° |
| 2026-04-26 12:36 | 49.19234 | -1.01362 | 21142 ft | 428 kts | 94° |
| 2026-04-26 12:37 | 49.19087 | -0.96801 | 21630 ft | 431 kts | 94° |
| 2026-04-26 12:37 | 49.18936 | -0.92196 | 22114 ft | 435 kts | 94° |
| 2026-04-26 12:37 | 49.18783 | -0.87569 | 22585 ft | 438 kts | 94° |
| 2026-04-26 12:37 | 49.18626 | -0.82904 | 23110 ft | 440 kts | 94° |
| 2026-04-26 12:38 | 49.18466 | -0.78214 | 23580 ft | 443 kts | 93° |
| 2026-04-26 12:38 | 49.18304 | -0.73490 | 23971 ft | 447 kts | 93° |
| 2026-04-26 12:38 | 49.18137 | -0.68720 | 24346 ft | 450 kts | 94° |
| 2026-04-26 12:38 | 49.17968 | -0.63924 | 24731 ft | 453 kts | 94° |
| 2026-04-26 12:39 | 49.17799 | -0.59167 | 25100 ft | 456 kts | 94° |
| 2026-04-26 12:39 | 49.17624 | -0.54316 | 25468 ft | 459 kts | 94° |
| 2026-04-26 12:39 | 49.17437 | -0.49438 | 25826 ft | 461 kts | 96° |
| 2026-04-26 12:39 | 49.16924 | -0.44528 | 26165 ft | 463 kts | 105° |
| 2026-04-26 12:40 | 49.15924 | -0.39928 | 26508 ft | 464 kts | 114° |
| 2026-04-26 12:40 | 49.14640 | -0.35459 | 26881 ft | 465 kts | 116° |
| 2026-04-26 12:40 | 49.13340 | -0.30950 | 27196 ft | 468 kts | 115° |
| 2026-04-26 12:40 | 49.12042 | -0.26299 | 27516 ft | 471 kts | 114° |
| 2026-04-26 12:41 | 49.10795 | -0.21722 | 27831 ft | 474 kts | 114° |
| 2026-04-26 12:41 | 49.09544 | -0.17049 | 28158 ft | 476 kts | 114° |
| 2026-04-26 12:41 | 49.08294 | -0.12354 | 28472 ft | 479 kts | 114° |
| 2026-04-26 12:41 | 49.07060 | -0.07724 | 28769 ft | 481 kts | 114° |
| 2026-04-26 12:42 | 49.05793 | -0.02981 | 29089 ft | 483 kts | 114° |
| 2026-04-26 12:42 | 49.04519 | 0.01763 | 29324 ft | 486 kts | 113° |
| 2026-04-26 12:42 | 49.03225 | 0.06565 | 29519 ft | 491 kts | 113° |
| 2026-04-26 12:42 | 49.01927 | 0.11366 | 29843 ft | 492 kts | 114° |
| 2026-04-26 12:43 | 49.00620 | 0.16190 | 30312 ft | 490 kts | 114° |
| 2026-04-26 12:43 | 48.99352 | 0.20863 | 30729 ft | 487 kts | 114° |
| 2026-04-26 12:43 | 48.98057 | 0.25623 | 31081 ft | 486 kts | 114° |
| 2026-04-26 12:43 | 48.96773 | 0.30333 | 31376 ft | 487 kts | 114° |
| 2026-04-26 12:44 | 48.95472 | 0.35094 | 31691 ft | 487 kts | 114° |
| 2026-04-26 12:44 | 48.94169 | 0.39857 | 32037 ft | 486 kts | 114° |
| 2026-04-26 12:44 | 48.92864 | 0.44614 | 32401 ft | 485 kts | 113° |
| 2026-04-26 12:44 | 48.91563 | 0.49349 | 32700 ft | 485 kts | 113° |
| 2026-04-26 12:45 | 48.90260 | 0.54081 | 32975 ft | 485 kts | 113° |
| 2026-04-26 12:45 | 48.88951 | 0.58829 | 33287 ft | 485 kts | 113° |
| 2026-04-26 12:45 | 48.87667 | 0.63479 | 33612 ft | 484 kts | 113° |
| 2026-04-26 12:45 | 48.86367 | 0.68175 | 33902 ft | 484 kts | 113° |
| 2026-04-26 12:46 | 48.85057 | 0.72906 | 34179 ft | 484 kts | 113° |
| 2026-04-26 12:46 | 48.83779 | 0.77625 | 34445 ft | 484 kts | 112° |
| 2026-04-26 12:46 | 48.82516 | 0.82361 | 34751 ft | 482 kts | 112° |
| 2026-04-26 12:46 | 48.81265 | 0.87069 | 35056 ft | 480 kts | 112° |
| 2026-04-26 12:47 | 48.80011 | 0.91774 | 35260 ft | 481 kts | 112° |
| 2026-04-26 12:47 | 48.77472 | 1.01235 | 35253 ft | 485 kts | 112° |
| 2026-04-26 12:48 | 48.74924 | 1.10659 | 35237 ft | 480 kts | 112° |
| 2026-04-26 12:48 | 48.72394 | 1.19983 | 35247 ft | 478 kts | 112° |
| 2026-04-26 12:49 | 48.69861 | 1.29283 | 35244 ft | 478 kts | 112° |
| 2026-04-26 12:49 | 48.67816 | 1.38738 | 35244 ft | 475 kts | 100° |
| 2026-04-26 12:50 | 48.66588 | 1.48477 | 35237 ft | 476 kts | 99° |
| 2026-04-26 12:50 | 48.65306 | 1.58312 | 35240 ft | 476 kts | 100° |
| 2026-04-26 12:51 | 48.63960 | 1.68134 | 35226 ft | 477 kts | 100° |
| 2026-04-26 12:51 | 48.62616 | 1.77953 | 35249 ft | 477 kts | 100° |
| 2026-04-26 12:52 | 48.61279 | 1.87715 | 35235 ft | 477 kts | 100° |
| 2026-04-26 12:52 | 48.59919 | 1.97568 | 35244 ft | 477 kts | 100° |
| 2026-04-26 12:53 | 48.58567 | 2.07294 | 35235 ft | 477 kts | 100° |
| 2026-04-26 12:53 | 48.57211 | 2.16991 | 35259 ft | 477 kts | 99° |
| 2026-04-26 12:54 | 48.56535 | 2.26778 | 35253 ft | 473 kts | 90° |
| 2026-04-26 12:54 | 48.56337 | 2.36724 | 35241 ft | 473 kts | 89° |
| 2026-04-26 12:55 | 48.56110 | 2.46141 | 35239 ft | 474 kts | 90° |
| 2026-04-26 12:55 | 48.55816 | 2.55895 | 35238 ft | 474 kts | 90° |
| 2026-04-26 12:56 | 48.55497 | 2.65841 | 35250 ft | 473 kts | 90° |
| 2026-04-26 12:56 | 48.55177 | 2.75718 | 35240 ft | 473 kts | 90° |
| 2026-04-26 12:57 | 48.54918 | 2.83954 | 35236 ft | 473 kts | 90° |
| 2026-04-26 12:57 | 48.54605 | 2.93852 | 35242 ft | 472 kts | 90° |
| 2026-04-26 12:58 | 48.53414 | 3.03623 | 35265 ft | 475 kts | 104° |
| 2026-04-26 12:58 | 48.52474 | 3.08412 | 35235 ft | 476 kts | 104° |
| 2026-04-26 12:58 | 48.50553 | 3.17959 | 35234 ft | 476 kts | 104° |
| 2026-04-26 12:59 | 48.48663 | 3.27523 | 35232 ft | 475 kts | 104° |
| 2026-04-26 12:59 | 48.46802 | 3.37080 | 35226 ft | 475 kts | 104° |
| 2026-04-26 13:00 | 48.44946 | 3.46629 | 35240 ft | 474 kts | 104° |
| 2026-04-26 13:00 | 48.43097 | 3.56097 | 35217 ft | 475 kts | 104° |
| 2026-04-26 13:01 | 48.41221 | 3.65640 | 35224 ft | 474 kts | 104° |
| 2026-04-26 13:01 | 48.39339 | 3.75167 | 35228 ft | 474 kts | 104° |
| 2026-04-26 13:02 | 48.37450 | 3.84679 | 35242 ft | 474 kts | 104° |
| 2026-04-26 13:02 | 48.35554 | 3.94179 | 35240 ft | 474 kts | 104° |
| 2026-04-26 13:03 | 48.33660 | 4.03624 | 35238 ft | 474 kts | 104° |
| 2026-04-26 13:03 | 48.31745 | 4.13128 | 35240 ft | 474 kts | 104° |
| 2026-04-26 13:04 | 48.29830 | 4.22588 | 35234 ft | 474 kts | 104° |
| 2026-04-26 13:04 | 48.27906 | 4.32049 | 35237 ft | 474 kts | 104° |
| 2026-04-26 13:05 | 48.25973 | 4.41507 | 35225 ft | 474 kts | 105° |
| 2026-04-26 13:05 | 48.24031 | 4.50963 | 35221 ft | 474 kts | 105° |
| 2026-04-26 13:06 | 48.22084 | 4.60398 | 35213 ft | 474 kts | 105° |
| 2026-04-26 13:06 | 48.20127 | 4.69836 | 35206 ft | 474 kts | 105° |
| 2026-04-26 13:07 | 48.18163 | 4.79267 | 35201 ft | 474 kts | 105° |
| 2026-04-26 13:07 | 48.16191 | 4.88692 | 35197 ft | 474 kts | 105° |
| 2026-04-26 13:08 | 48.14208 | 4.98125 | 35205 ft | 474 kts | 105° |
| 2026-04-26 13:08 | 48.12234 | 5.07482 | 35199 ft | 474 kts | 105° |
| 2026-04-26 13:09 | 48.10248 | 5.16890 | 35209 ft | 474 kts | 104° |
| 2026-04-26 13:09 | 48.08736 | 5.26488 | 35203 ft | 472 kts | 99° |
| 2026-04-26 13:10 | 48.07444 | 5.36115 | 35198 ft | 472 kts | 99° |
| 2026-04-26 13:10 | 48.06121 | 5.45742 | 35205 ft | 472 kts | 100° |
| 2026-04-26 13:11 | 48.04758 | 5.55282 | 35205 ft | 472 kts | 101° |
| 2026-04-26 13:11 | 48.03359 | 5.64883 | 35201 ft | 472 kts | 101° |
| 2026-04-26 13:12 | 48.01951 | 5.74476 | 35195 ft | 472 kts | 101° |
| 2026-04-26 13:12 | 48.00540 | 5.84039 | 35192 ft | 471 kts | 101° |
| 2026-04-26 13:13 | 47.99132 | 5.93537 | 35196 ft | 471 kts | 101° |
| 2026-04-26 13:13 | 47.97707 | 6.03090 | 35192 ft | 471 kts | 102° |
| 2026-04-26 13:14 | 47.96273 | 6.12637 | 35193 ft | 471 kts | 102° |
| 2026-04-26 13:14 | 47.94831 | 6.22190 | 35192 ft | 471 kts | 102° |
| 2026-04-26 13:15 | 47.93384 | 6.31711 | 35188 ft | 471 kts | 102° |
| 2026-04-26 13:15 | 47.91925 | 6.41252 | 35195 ft | 471 kts | 102° |
| 2026-04-26 13:16 | 47.90462 | 6.50772 | 35193 ft | 472 kts | 102° |
| 2026-04-26 13:16 | 47.88996 | 6.60247 | 35179 ft | 472 kts | 102° |
| 2026-04-26 13:17 | 47.86766 | 6.74558 | 35187 ft | 473 kts | 102° |
| 2026-04-26 13:18 | 47.84516 | 6.88872 | 35194 ft | 473 kts | 103° |
| 2026-04-26 13:19 | 47.82247 | 7.03183 | 35197 ft | 473 kts | 103° |
| 2026-04-26 13:19 | 47.80733 | 7.12660 | 35200 ft | 473 kts | 103° |
| 2026-04-26 13:20 | 47.79203 | 7.22187 | 35196 ft | 473 kts | 103° |
| 2026-04-26 13:20 | 47.77677 | 7.31636 | 35185 ft | 473 kts | 103° |
| 2026-04-26 13:21 | 47.76135 | 7.41139 | 35191 ft | 472 kts | 103° |
| 2026-04-26 13:21 | 47.74514 | 7.50523 | 35180 ft | 472 kts | 110° |
| 2026-04-26 13:22 | 47.71422 | 7.59126 | 35188 ft | 469 kts | 129° |
| 2026-04-26 13:22 | 47.67164 | 7.66348 | 35187 ft | 467 kts | 134° |
| 2026-04-26 13:23 | 47.62796 | 7.73501 | 35182 ft | 468 kts | 134° |
| 2026-04-26 13:23 | 47.58472 | 7.80654 | 35184 ft | 467 kts | 133° |
| 2026-04-26 13:24 | 47.54369 | 7.87484 | 35192 ft | 467 kts | 133° |
| 2026-04-26 13:24 | 47.50047 | 7.94681 | 35187 ft | 467 kts | 133° |
| 2026-04-26 13:25 | 47.45727 | 8.01851 | 35188 ft | 467 kts | 133° |
| 2026-04-26 13:25 | 47.41399 | 8.09014 | 35181 ft | 467 kts | 133° |
| 2026-04-26 13:26 | 47.37072 | 8.16155 | 35197 ft | 467 kts | 133° |
| 2026-04-26 13:26 | 47.32912 | 8.23001 | 35174 ft | 467 kts | 134° |
| 2026-04-26 13:26 | 47.30719 | 8.26603 | 34634 ft | 473 kts | 134° |
| 2026-04-26 13:27 | 47.28523 | 8.30206 | 34013 ft | 472 kts | 134° |
| 2026-04-26 13:27 | 47.26333 | 8.33795 | 33310 ft | 472 kts | 134° |
| 2026-04-26 13:27 | 47.24136 | 8.37389 | 32644 ft | 471 kts | 134° |
| 2026-04-26 13:27 | 47.21973 | 8.40923 | 31993 ft | 470 kts | 134° |
| 2026-04-26 13:28 | 47.19798 | 8.44474 | 31569 ft | 465 kts | 134° |
| 2026-04-26 13:28 | 47.17641 | 8.47990 | 31082 ft | 461 kts | 134° |
| 2026-04-26 13:28 | 47.15500 | 8.51476 | 30613 ft | 457 kts | 134° |
| 2026-04-26 13:28 | 47.13370 | 8.54940 | 30125 ft | 454 kts | 134° |
| 2026-04-26 13:29 | 47.11295 | 8.58307 | 29601 ft | 450 kts | 134° |
| 2026-04-26 13:29 | 47.09904 | 8.60562 | 29288 ft | 446 kts | 134° |
| 2026-04-26 13:29 | 47.07137 | 8.65045 | 28664 ft | 439 kts | 134° |
| 2026-04-26 13:29 | 47.05106 | 8.68330 | 28142 ft | 436 kts | 134° |
| 2026-04-26 13:30 | 47.03044 | 8.71417 | 27460 ft | 430 kts | 140° |
| 2026-04-26 13:30 | 47.00776 | 8.74315 | 26713 ft | 432 kts | 142° |
| 2026-04-26 13:30 | 46.98464 | 8.77138 | 25484 ft | 447 kts | 142° |
| 2026-04-26 13:30 | 46.96020 | 8.80083 | 24267 ft | 461 kts | 142° |
| 2026-04-26 13:31 | 46.93539 | 8.83086 | 23361 ft | 464 kts | 142° |
| 2026-04-26 13:31 | 46.91074 | 8.86098 | 22605 ft | 460 kts | 141° |
| 2026-04-26 13:31 | 46.88651 | 8.89083 | 21992 ft | 454 kts | 141° |
| 2026-04-26 13:31 | 46.86248 | 8.92055 | 21365 ft | 446 kts | 141° |
| 2026-04-26 13:32 | 46.83924 | 8.94935 | 20824 ft | 429 kts | 141° |
| 2026-04-26 13:32 | 46.81688 | 8.97704 | 20355 ft | 414 kts | 141° |
| 2026-04-26 13:32 | 46.79528 | 9.00376 | 19890 ft | 400 kts | 141° |
| 2026-04-26 13:32 | 46.77437 | 9.02960 | 19454 ft | 389 kts | 141° |
| 2026-04-26 13:33 | 46.75382 | 9.05494 | 19041 ft | 385 kts | 141° |
| 2026-04-26 13:33 | 46.73352 | 9.07993 | 18625 ft | 383 kts | 141° |
| 2026-04-26 13:33 | 46.71308 | 9.10507 | 18145 ft | 381 kts | 141° |
| 2026-04-26 13:33 | 46.69289 | 9.12988 | 17678 ft | 378 kts | 141° |
| 2026-04-26 13:34 | 46.67282 | 9.15451 | 17226 ft | 375 kts | 141° |
| 2026-04-26 13:34 | 46.65300 | 9.17880 | 16794 ft | 372 kts | 141° |
| 2026-04-26 13:34 | 46.63325 | 9.20301 | 16407 ft | 368 kts | 141° |
| 2026-04-26 13:34 | 46.62030 | 9.21889 | 16124 ft | 368 kts | 141° |
| 2026-04-26 13:35 | 46.59421 | 9.25079 | 15559 ft | 365 kts | 141° |
| 2026-04-26 13:35 | 46.57501 | 9.27423 | 15165 ft | 363 kts | 141° |
| 2026-04-26 13:35 | 46.55574 | 9.29777 | 14753 ft | 361 kts | 141° |
| 2026-04-26 13:35 | 46.53630 | 9.32147 | 14347 ft | 359 kts | 141° |
| 2026-04-26 13:36 | 46.51745 | 9.34443 | 14045 ft | 356 kts | 141° |
| 2026-04-26 13:36 | 46.49871 | 9.36726 | 13885 ft | 347 kts | 141° |
| 2026-04-26 13:36 | 46.48042 | 9.38950 | 13717 ft | 338 kts | 141° |
| 2026-04-26 13:36 | 46.46264 | 9.41115 | 13599 ft | 329 kts | 141° |
| 2026-04-26 13:37 | 46.44531 | 9.43218 | 13430 ft | 321 kts | 141° |
| 2026-04-26 13:37 | 46.42843 | 9.45257 | 13298 ft | 310 kts | 141° |
| 2026-04-26 13:37 | 46.41226 | 9.47222 | 13148 ft | 296 kts | 141° |
| 2026-04-26 13:37 | 46.39689 | 9.49086 | 13037 ft | 281 kts | 141° |
| 2026-04-26 13:38 | 46.38228 | 9.50846 | 12981 ft | 263 kts | 141° |
| 2026-04-26 13:38 | 46.36867 | 9.52498 | 12863 ft | 247 kts | 141° |
| 2026-04-26 13:38 | 46.35595 | 9.54036 | 12732 ft | 230 kts | 141° |
| 2026-04-26 13:38 | 46.34430 | 9.55445 | 12590 ft | 211 kts | 141° |
| 2026-04-26 13:39 | 46.33425 | 9.56872 | 12445 ft | 198 kts | 120° |
| 2026-04-26 13:39 | 46.33140 | 9.58756 | 12289 ft | 185 kts | 83° |
| 2026-04-26 13:39 | 46.33432 | 9.60608 | 12241 ft | 194 kts | 69° |
| 2026-04-26 13:39 | 46.33917 | 9.62352 | 12127 ft | 183 kts | 67° |
| 2026-04-26 13:40 | 46.34396 | 9.64026 | 12022 ft | 179 kts | 67° |
| 2026-04-26 13:40 | 46.34870 | 9.65699 | 11952 ft | 180 kts | 68° |
| 2026-04-26 13:40 | 46.35351 | 9.67415 | 11886 ft | 186 kts | 68° |
| 2026-04-26 13:40 | 46.35954 | 9.69057 | 11615 ft | 188 kts | 46° |
| 2026-04-26 13:41 | 46.36958 | 9.70205 | 11327 ft | 183 kts | 36° |
| 2026-04-26 13:41 | 46.37968 | 9.71336 | 10957 ft | 182 kts | 37° |
| 2026-04-26 13:41 | 46.38628 | 9.72081 | 10760 ft | 181 kts | 38° |
| 2026-04-26 13:41 | 46.39930 | 9.73552 | 10301 ft | 174 kts | 37° |
| 2026-04-26 13:42 | 46.40878 | 9.74613 | 9933 ft | 171 kts | 37° |
| 2026-04-26 13:42 | 46.41817 | 9.75687 | 9572 ft | 173 kts | 37° |
| 2026-04-26 13:42 | 46.42761 | 9.76768 | 9212 ft | 173 kts | 39° |
| 2026-04-26 13:42 | 46.43685 | 9.77885 | 8827 ft | 172 kts | 40° |
| 2026-04-26 13:43 | 46.44294 | 9.78640 | 8641 ft | 168 kts | 40° |
| 2026-04-26 13:43 | 46.45171 | 9.79742 | 8351 ft | 165 kts | 41° |
| 2026-04-26 13:43 | 46.46018 | 9.80834 | 8066 ft | 163 kts | 41° |
| 2026-04-26 13:43 | 46.46836 | 9.81902 | 7837 ft | 161 kts | 41° |
| 2026-04-26 13:44 | 46.47668 | 9.83037 | 7553 ft | 164 kts | 43° |
| 2026-04-26 13:44 | 46.48522 | 9.84148 | 7268 ft | 167 kts | 38° |
| 2026-04-26 13:44 | 46.49477 | 9.85145 | 6970 ft | 171 kts | 32° |
| 2026-04-26 13:44 | 46.50499 | 9.86057 | 6623 ft | 172 kts | 30° |
| 2026-04-26 13:45 | 46.51539 | 9.86863 | 6233 ft | 167 kts | 29° |
| 2026-04-26 13:45 | 46.52535 | 9.87668 | 5790 ft | 160 kts | 31° |
| 2026-04-26 13:45 | 46.53457 | 9.88421 | 5610 ft | 139 kts | 28° |
| 2026-04-26 13:45 | 46.53886 | 9.88769 | 5606 ft | 1 kts | 29° |
| 2026-04-26 13:46 | 46.53913 | 9.88792 | 5605 ft | 9 kts | 29° |
| 2026-04-26 13:46 | 46.53984 | 9.88849 | 5607 ft | 14 kts | 29° |
| 2026-04-26 13:46 | 46.54073 | 9.88922 | 5608 ft | 14 kts | 29° |
| 2026-04-26 13:46 | 46.54122 | 9.89023 | 5612 ft | 12 kts | 105° |
| 2026-04-26 13:47 | 46.54052 | 9.89047 | 5605 ft | 12 kts | 208° |
| 2026-04-26 13:47 | 46.53992 | 9.88998 | 5608 ft | 12 kts | 209° |
| 2026-04-26 13:47 | 46.53921 | 9.88941 | 5609 ft | 12 kts | 209° |
| 2026-04-26 13:47 | 46.53844 | 9.88878 | 5605 ft | 13 kts | 209° |
| 2026-04-26 13:48 | 46.53768 | 9.88816 | 5604 ft | 13 kts | 209° |
| 2026-04-26 13:48 | 46.53680 | 9.88744 | 5606 ft | 17 kts | 210° |
| 2026-04-26 13:48 | 46.53578 | 9.88661 | 5609 ft | 17 kts | 208° |
| 2026-04-26 13:48 | 46.53481 | 9.88582 | 5607 ft | 16 kts | 210° |
| 2026-04-26 13:49 | 46.53385 | 9.88504 | 5609 ft | 15 kts | 209° |
| 2026-04-26 13:49 | 46.53294 | 9.88429 | 5607 ft | 15 kts | 209° |
| 2026-04-26 13:49 | 46.53206 | 9.88359 | 5608 ft | 14 kts | 209° |
| 2026-04-26 13:49 | 46.53123 | 9.88292 | 5608 ft | 13 kts | 209° |
| 2026-04-26 13:50 | 46.53043 | 9.88226 | 5605 ft | 13 kts | 210° |
| 2026-04-26 13:50 | 46.52966 | 9.88163 | 5608 ft | 13 kts | 209° |
| 2026-04-26 13:50 | 46.52943 | 9.88103 | 5606 ft | 7 kts | 290° |
| 2026-04-26 13:50 | 46.52968 | 9.88033 | 5602 ft | 8 kts | 298° |
| 2026-04-26 13:51 | 46.52995 | 9.87963 | 5606 ft | 8 kts | 298° |
| 2026-04-26 13:51 | 46.53039 | 9.87942 | 5602 ft | 8 kts | 32° |
| 2026-04-26 13:51 | 46.53075 | 9.87996 | 5606 ft | 5 kts | 29° |
| 2026-04-26 13:51 | 46.53106 | 9.87994 | 5602 ft | 5 kts | 301° |
| 2026-04-26 13:52 | 46.53093 | 9.87972 | 5607 ft | 0 kts | 204° |